sensor_id;sensor_type;location;lat;lon;timestamp;P1;durP1;ratioP1;P2;durP2;ratioP2
80961;SDS011;70424;55.154;14.722;2024-01-30T00:01:19;7.70;;;4.05;;
80961;SDS011;70424;55.154;14.722;2024-01-30T00:03:44;6.05;;;3.97;;
80961;SDS011;70424;55.154;14.722;2024-01-30T00:06:09;8.07;;;4.20;;
80961;SDS011;70424;55.154;14.722;2024-01-30T00:08:36;8.13;;;4.30;;
80961;SDS011;70424;55.154;14.722;2024-01-30T00:11:01;8.60;;;4.25;;
80961;SDS011;70424;55.154;14.722;2024-01-30T00:13:27;7.82;;;4.18;;
80961;SDS011;70424;55.154;14.722;2024-01-30T00:15:52;8.52;;;4.20;;
80961;SDS011;70424;55.154;14.722;2024-01-30T00:18:18;8.60;;;4.22;;
80961;SDS011;70424;55.154;14.722;2024-01-30T00:20:44;7.45;;;4.15;;
80961;SDS011;70424;55.154;14.722;2024-01-30T00:23:10;7.15;;;4.18;;
80961;SDS011;70424;55.154;14.722;2024-01-30T00:25:35;9.02;;;4.25;;
80961;SDS011;70424;55.154;14.722;2024-01-30T00:28:00;8.70;;;4.70;;
80961;SDS011;70424;55.154;14.722;2024-01-30T00:30:26;8.18;;;4.63;;
80961;SDS011;70424;55.154;14.722;2024-01-30T00:32:51;8.45;;;4.50;;
80961;SDS011;70424;55.154;14.722;2024-01-30T00:35:17;7.75;;;4.38;;
80961;SDS011;70424;55.154;14.722;2024-01-30T00:37:42;8.23;;;4.28;;
80961;SDS011;70424;55.154;14.722;2024-01-30T00:40:08;7.60;;;4.32;;
80961;SDS011;70424;55.154;14.722;2024-01-30T00:42:35;8.23;;;4.57;;
80961;SDS011;70424;55.154;14.722;2024-01-30T00:45:00;10.77;;;4.70;;
80961;SDS011;70424;55.154;14.722;2024-01-30T00:47:26;9.15;;;4.75;;
80961;SDS011;70424;55.154;14.722;2024-01-30T00:49:51;10.25;;;4.90;;
80961;SDS011;70424;55.154;14.722;2024-01-30T00:52:16;8.02;;;4.57;;
80961;SDS011;70424;55.154;14.722;2024-01-30T00:54:42;7.07;;;4.68;;
80961;SDS011;70424;55.154;14.722;2024-01-30T00:57:08;7.53;;;4.22;;
80961;SDS011;70424;55.154;14.722;2024-01-30T00:59:33;8.80;;;4.35;;
80961;SDS011;70424;55.154;14.722;2024-01-30T01:01:59;7.38;;;4.45;;
80961;SDS011;70424;55.154;14.722;2024-01-30T01:04:24;7.10;;;4.20;;
80961;SDS011;70424;55.154;14.722;2024-01-30T01:06:51;8.03;;;4.63;;
80961;SDS011;70424;55.154;14.722;2024-01-30T01:09:17;8.07;;;4.57;;
80961;SDS011;70424;55.154;14.722;2024-01-30T01:11:42;7.90;;;4.68;;
80961;SDS011;70424;55.154;14.722;2024-01-30T01:14:07;8.80;;;5.53;;
80961;SDS011;70424;55.154;14.722;2024-01-30T01:16:33;8.55;;;4.80;;
80961;SDS011;70424;55.154;14.722;2024-01-30T01:18:59;9.50;;;5.43;;
80961;SDS011;70424;55.154;14.722;2024-01-30T01:21:25;9.70;;;5.70;;
80961;SDS011;70424;55.154;14.722;2024-01-30T01:23:50;8.85;;;4.43;;
80961;SDS011;70424;55.154;14.722;2024-01-30T01:26:16;8.05;;;5.30;;
80961;SDS011;70424;55.154;14.722;2024-01-30T01:28:41;11.50;;;5.90;;
80961;SDS011;70424;55.154;14.722;2024-01-30T01:31:07;10.55;;;5.40;;
80961;SDS011;70424;55.154;14.722;2024-01-30T01:33:33;9.60;;;5.40;;
80961;SDS011;70424;55.154;14.722;2024-01-30T01:35:59;9.27;;;5.28;;
80961;SDS011;70424;55.154;14.722;2024-01-30T01:38:24;9.93;;;5.85;;
80961;SDS011;70424;55.154;14.722;2024-01-30T01:40:50;10.88;;;5.57;;
80961;SDS011;70424;55.154;14.722;2024-01-30T01:43:16;13.75;;;6.20;;
80961;SDS011;70424;55.154;14.722;2024-01-30T01:45:41;9.80;;;5.65;;
80961;SDS011;70424;55.154;14.722;2024-01-30T01:48:07;11.30;;;5.50;;
80961;SDS011;70424;55.154;14.722;2024-01-30T01:50:34;12.52;;;6.70;;
80961;SDS011;70424;55.154;14.722;2024-01-30T01:53:00;8.80;;;6.30;;
80961;SDS011;70424;55.154;14.722;2024-01-30T01:55:25;10.57;;;5.72;;
80961;SDS011;70424;55.154;14.722;2024-01-30T01:57:53;10.15;;;6.30;;
80961;SDS011;70424;55.154;14.722;2024-01-30T02:00:19;12.38;;;6.68;;
80961;SDS011;70424;55.154;14.722;2024-01-30T02:02:45;14.85;;;7.30;;
80961;SDS011;70424;55.154;14.722;2024-01-30T02:05:11;10.93;;;6.47;;
80961;SDS011;70424;55.154;14.722;2024-01-30T02:07:37;13.88;;;7.18;;
80961;SDS011;70424;55.154;14.722;2024-01-30T02:10:03;13.57;;;7.28;;
80961;SDS011;70424;55.154;14.722;2024-01-30T02:12:29;12.02;;;7.07;;
80961;SDS011;70424;55.154;14.722;2024-01-30T02:14:54;12.43;;;6.97;;
80961;SDS011;70424;55.154;14.722;2024-01-30T02:17:20;11.50;;;7.13;;
80961;SDS011;70424;55.154;14.722;2024-01-30T02:19:46;12.80;;;7.13;;
80961;SDS011;70424;55.154;14.722;2024-01-30T02:22:11;12.02;;;7.28;;
80961;SDS011;70424;55.154;14.722;2024-01-30T02:24:38;12.38;;;7.15;;
80961;SDS011;70424;55.154;14.722;2024-01-30T02:27:03;11.48;;;6.82;;
80961;SDS011;70424;55.154;14.722;2024-01-30T02:29:29;11.30;;;6.75;;
80961;SDS011;70424;55.154;14.722;2024-01-30T02:31:54;11.57;;;7.70;;
80961;SDS011;70424;55.154;14.722;2024-01-30T02:34:19;12.90;;;7.38;;
80961;SDS011;70424;55.154;14.722;2024-01-30T02:36:45;13.65;;;7.72;;
80961;SDS011;70424;55.154;14.722;2024-01-30T02:39:11;13.68;;;7.63;;
80961;SDS011;70424;55.154;14.722;2024-01-30T02:41:36;11.77;;;7.07;;
80961;SDS011;70424;55.154;14.722;2024-01-30T02:44:02;15.77;;;8.00;;
80961;SDS011;70424;55.154;14.722;2024-01-30T02:46:28;14.10;;;8.07;;
80961;SDS011;70424;55.154;14.722;2024-01-30T02:48:53;13.90;;;7.88;;
80961;SDS011;70424;55.154;14.722;2024-01-30T02:51:19;12.50;;;7.82;;
80961;SDS011;70424;55.154;14.722;2024-01-30T02:53:44;13.85;;;8.27;;
80961;SDS011;70424;55.154;14.722;2024-01-30T02:56:10;11.75;;;7.63;;
80961;SDS011;70424;55.154;14.722;2024-01-30T02:58:36;12.35;;;8.35;;
80961;SDS011;70424;55.154;14.722;2024-01-30T03:01:02;15.00;;;8.50;;
80961;SDS011;70424;55.154;14.722;2024-01-30T03:03:28;14.13;;;8.60;;
80961;SDS011;70424;55.154;14.722;2024-01-30T03:05:53;13.23;;;8.25;;
80961;SDS011;70424;55.154;14.722;2024-01-30T03:08:19;16.05;;;8.32;;
80961;SDS011;70424;55.154;14.722;2024-01-30T03:10:44;14.85;;;8.50;;
80961;SDS011;70424;55.154;14.722;2024-01-30T03:13:10;15.23;;;8.27;;
80961;SDS011;70424;55.154;14.722;2024-01-30T03:15:35;13.10;;;7.65;;
80961;SDS011;70424;55.154;14.722;2024-01-30T03:18:01;12.55;;;8.35;;
80961;SDS011;70424;55.154;14.722;2024-01-30T03:20:28;13.70;;;7.53;;
80961;SDS011;70424;55.154;14.722;2024-01-30T03:22:54;14.40;;;8.13;;
80961;SDS011;70424;55.154;14.722;2024-01-30T03:25:20;13.05;;;8.32;;
80961;SDS011;70424;55.154;14.722;2024-01-30T03:27:46;13.20;;;7.70;;
80961;SDS011;70424;55.154;14.722;2024-01-30T03:30:11;15.32;;;8.20;;
80961;SDS011;70424;55.154;14.722;2024-01-30T03:32:37;12.02;;;8.25;;
80961;SDS011;70424;55.154;14.722;2024-01-30T03:35:02;13.57;;;8.40;;
80961;SDS011;70424;55.154;14.722;2024-01-30T03:37:28;13.95;;;8.00;;
80961;SDS011;70424;55.154;14.722;2024-01-30T03:39:53;11.70;;;8.02;;
80961;SDS011;70424;55.154;14.722;2024-01-30T03:42:18;14.60;;;8.50;;
80961;SDS011;70424;55.154;14.722;2024-01-30T03:44:44;13.65;;;8.07;;
80961;SDS011;70424;55.154;14.722;2024-01-30T03:47:09;16.13;;;8.07;;
80961;SDS011;70424;55.154;14.722;2024-01-30T03:49:34;15.13;;;8.32;;
80961;SDS011;70424;55.154;14.722;2024-01-30T03:52:00;13.18;;;8.38;;
80961;SDS011;70424;55.154;14.722;2024-01-30T03:54:25;18.20;;;8.88;;
80961;SDS011;70424;55.154;14.722;2024-01-30T03:56:50;14.18;;;8.82;;
80961;SDS011;70424;55.154;14.722;2024-01-30T03:59:16;14.25;;;7.80;;
80961;SDS011;70424;55.154;14.722;2024-01-30T04:01:42;14.00;;;8.10;;
80961;SDS011;70424;55.154;14.722;2024-01-30T04:04:08;14.10;;;7.75;;
80961;SDS011;70424;55.154;14.722;2024-01-30T04:06:33;14.95;;;8.18;;
80961;SDS011;70424;55.154;14.722;2024-01-30T04:08:58;13.93;;;8.13;;
80961;SDS011;70424;55.154;14.722;2024-01-30T04:11:24;13.90;;;7.80;;
80961;SDS011;70424;55.154;14.722;2024-01-30T04:13:50;15.95;;;8.93;;
80961;SDS011;70424;55.154;14.722;2024-01-30T04:16:21;15.85;;;8.85;;
80961;SDS011;70424;55.154;14.722;2024-01-30T04:18:47;16.35;;;9.90;;
80961;SDS011;70424;55.154;14.722;2024-01-30T04:21:12;20.85;;;10.43;;
80961;SDS011;70424;55.154;14.722;2024-01-30T04:23:39;18.25;;;10.50;;
80961;SDS011;70424;55.154;14.722;2024-01-30T04:26:05;22.33;;;11.23;;
80961;SDS011;70424;55.154;14.722;2024-01-30T04:28:30;23.27;;;11.32;;
80961;SDS011;70424;55.154;14.722;2024-01-30T04:30:56;22.88;;;11.63;;
80961;SDS011;70424;55.154;14.722;2024-01-30T04:33:21;21.70;;;11.55;;
80961;SDS011;70424;55.154;14.722;2024-01-30T04:35:47;20.13;;;11.60;;
80961;SDS011;70424;55.154;14.722;2024-01-30T04:38:12;23.25;;;12.52;;
80961;SDS011;70424;55.154;14.722;2024-01-30T04:40:39;23.47;;;12.10;;
80961;SDS011;70424;55.154;14.722;2024-01-30T04:43:05;23.52;;;11.25;;
80961;SDS011;70424;55.154;14.722;2024-01-30T04:45:30;25.90;;;12.65;;
80961;SDS011;70424;55.154;14.722;2024-01-30T04:47:55;24.52;;;12.63;;
80961;SDS011;70424;55.154;14.722;2024-01-30T04:50:21;23.40;;;11.70;;
80961;SDS011;70424;55.154;14.722;2024-01-30T04:52:46;22.77;;;12.57;;
80961;SDS011;70424;55.154;14.722;2024-01-30T04:55:12;25.63;;;12.13;;
80961;SDS011;70424;55.154;14.722;2024-01-30T04:57:37;22.90;;;12.45;;
80961;SDS011;70424;55.154;14.722;2024-01-30T05:00:03;23.02;;;11.68;;
80961;SDS011;70424;55.154;14.722;2024-01-30T05:02:28;21.73;;;11.50;;
80961;SDS011;70424;55.154;14.722;2024-01-30T05:04:54;21.17;;;11.85;;
80961;SDS011;70424;55.154;14.722;2024-01-30T05:07:19;19.92;;;11.65;;
80961;SDS011;70424;55.154;14.722;2024-01-30T05:09:45;18.48;;;11.27;;
80961;SDS011;70424;55.154;14.722;2024-01-30T05:12:10;19.23;;;11.38;;
80961;SDS011;70424;55.154;14.722;2024-01-30T05:14:36;21.33;;;11.10;;
80961;SDS011;70424;55.154;14.722;2024-01-30T05:17:01;16.27;;;10.10;;
80961;SDS011;70424;55.154;14.722;2024-01-30T05:19:28;20.98;;;10.85;;
80961;SDS011;70424;55.154;14.722;2024-01-30T05:21:53;20.60;;;11.07;;
80961;SDS011;70424;55.154;14.722;2024-01-30T05:24:19;17.10;;;10.65;;
80961;SDS011;70424;55.154;14.722;2024-01-30T05:26:44;22.33;;;10.82;;
80961;SDS011;70424;55.154;14.722;2024-01-30T05:29:09;19.70;;;11.68;;
80961;SDS011;70424;55.154;14.722;2024-01-30T05:31:35;20.17;;;10.60;;
80961;SDS011;70424;55.154;14.722;2024-01-30T05:34:00;21.05;;;11.38;;
80961;SDS011;70424;55.154;14.722;2024-01-30T05:36:26;18.25;;;10.82;;
80961;SDS011;70424;55.154;14.722;2024-01-30T05:38:52;20.17;;;11.15;;
80961;SDS011;70424;55.154;14.722;2024-01-30T05:41:17;20.60;;;10.48;;
80961;SDS011;70424;55.154;14.722;2024-01-30T05:43:43;20.40;;;10.95;;
80961;SDS011;70424;55.154;14.722;2024-01-30T05:46:08;22.48;;;10.80;;
80961;SDS011;70424;55.154;14.722;2024-01-30T05:48:34;21.50;;;11.50;;
80961;SDS011;70424;55.154;14.722;2024-01-30T05:51:00;20.42;;;10.35;;
80961;SDS011;70424;55.154;14.722;2024-01-30T05:53:26;23.35;;;11.30;;
80961;SDS011;70424;55.154;14.722;2024-01-30T05:55:52;23.95;;;11.32;;
80961;SDS011;70424;55.154;14.722;2024-01-30T05:58:17;23.00;;;12.18;;
80961;SDS011;70424;55.154;14.722;2024-01-30T06:00:42;22.17;;;11.18;;
80961;SDS011;70424;55.154;14.722;2024-01-30T06:03:08;21.85;;;11.60;;
80961;SDS011;70424;55.154;14.722;2024-01-30T06:05:33;19.60;;;10.48;;
80961;SDS011;70424;55.154;14.722;2024-01-30T06:07:59;19.85;;;10.60;;
80961;SDS011;70424;55.154;14.722;2024-01-30T06:10:24;23.02;;;11.85;;
80961;SDS011;70424;55.154;14.722;2024-01-30T06:12:49;23.42;;;10.70;;
80961;SDS011;70424;55.154;14.722;2024-01-30T06:15:15;20.13;;;10.10;;
80961;SDS011;70424;55.154;14.722;2024-01-30T06:17:40;20.45;;;11.15;;
80961;SDS011;70424;55.154;14.722;2024-01-30T06:20:06;20.83;;;10.70;;
80961;SDS011;70424;55.154;14.722;2024-01-30T06:22:31;20.77;;;11.20;;
80961;SDS011;70424;55.154;14.722;2024-01-30T06:24:57;19.77;;;10.80;;
80961;SDS011;70424;55.154;14.722;2024-01-30T06:27:22;21.50;;;11.38;;
80961;SDS011;70424;55.154;14.722;2024-01-30T06:29:48;19.65;;;10.88;;
80961;SDS011;70424;55.154;14.722;2024-01-30T06:32:13;23.40;;;11.50;;
80961;SDS011;70424;55.154;14.722;2024-01-30T06:34:38;18.48;;;11.20;;
80961;SDS011;70424;55.154;14.722;2024-01-30T06:37:05;19.65;;;9.63;;
80961;SDS011;70424;55.154;14.722;2024-01-30T06:39:31;20.10;;;10.23;;
80961;SDS011;70424;55.154;14.722;2024-01-30T06:41:56;20.20;;;11.52;;
80961;SDS011;70424;55.154;14.722;2024-01-30T06:44:21;19.70;;;10.90;;
80961;SDS011;70424;55.154;14.722;2024-01-30T06:46:47;19.85;;;11.45;;
80961;SDS011;70424;55.154;14.722;2024-01-30T06:49:12;19.20;;;10.80;;
80961;SDS011;70424;55.154;14.722;2024-01-30T06:51:38;20.15;;;11.82;;
80961;SDS011;70424;55.154;14.722;2024-01-30T06:54:04;24.80;;;11.63;;
80961;SDS011;70424;55.154;14.722;2024-01-30T06:56:29;20.10;;;11.73;;
80961;SDS011;70424;55.154;14.722;2024-01-30T06:58:54;20.35;;;11.43;;
80961;SDS011;70424;55.154;14.722;2024-01-30T07:01:20;19.27;;;11.50;;
80961;SDS011;70424;55.154;14.722;2024-01-30T07:03:46;21.30;;;11.68;;
80961;SDS011;70424;55.154;14.722;2024-01-30T07:06:11;22.05;;;11.40;;
80961;SDS011;70424;55.154;14.722;2024-01-30T07:08:37;21.50;;;12.70;;
80961;SDS011;70424;55.154;14.722;2024-01-30T07:13:31;23.75;;;12.13;;
80961;SDS011;70424;55.154;14.722;2024-01-30T07:15:56;21.20;;;12.32;;
80961;SDS011;70424;55.154;14.722;2024-01-30T07:18:22;24.42;;;12.70;;
80961;SDS011;70424;55.154;14.722;2024-01-30T07:20:47;24.75;;;12.07;;
80961;SDS011;70424;55.154;14.722;2024-01-30T07:23:14;21.70;;;12.02;;
80961;SDS011;70424;55.154;14.722;2024-01-30T07:25:41;20.92;;;12.63;;
80961;SDS011;70424;55.154;14.722;2024-01-30T07:28:07;23.88;;;13.40;;
80961;SDS011;70424;55.154;14.722;2024-01-30T07:30:37;21.63;;;11.98;;
80961;SDS011;70424;55.154;14.722;2024-01-30T07:33:03;24.67;;;12.05;;
80961;SDS011;70424;55.154;14.722;2024-01-30T07:35:28;24.70;;;11.77;;
80961;SDS011;70424;55.154;14.722;2024-01-30T07:37:53;19.75;;;11.70;;
80961;SDS011;70424;55.154;14.722;2024-01-30T07:40:19;20.27;;;11.52;;
80961;SDS011;70424;55.154;14.722;2024-01-30T07:42:45;20.42;;;11.63;;
80961;SDS011;70424;55.154;14.722;2024-01-30T07:45:11;22.55;;;10.85;;
80961;SDS011;70424;55.154;14.722;2024-01-30T07:47:36;21.60;;;11.35;;
80961;SDS011;70424;55.154;14.722;2024-01-30T07:50:01;21.05;;;11.38;;
80961;SDS011;70424;55.154;14.722;2024-01-30T07:52:27;20.38;;;10.38;;
80961;SDS011;70424;55.154;14.722;2024-01-30T07:55:02;20.42;;;11.73;;
80961;SDS011;70424;55.154;14.722;2024-01-30T07:57:57;16.27;;;10.00;;
80961;SDS011;70424;55.154;14.722;2024-01-30T08:00:23;22.55;;;11.52;;
80961;SDS011;70424;55.154;14.722;2024-01-30T08:02:49;19.77;;;10.95;;
80961;SDS011;70424;55.154;14.722;2024-01-30T08:05:15;21.30;;;11.98;;
80961;SDS011;70424;55.154;14.722;2024-01-30T08:07:41;19.38;;;11.20;;
80961;SDS011;70424;55.154;14.722;2024-01-30T08:10:11;22.92;;;11.45;;
80961;SDS011;70424;55.154;14.722;2024-01-30T08:12:37;18.42;;;11.07;;
80961;SDS011;70424;55.154;14.722;2024-01-30T08:15:03;19.40;;;10.40;;
80961;SDS011;70424;55.154;14.722;2024-01-30T08:17:28;24.13;;;11.57;;
80961;SDS011;70424;55.154;14.722;2024-01-30T08:19:54;17.40;;;11.30;;
80961;SDS011;70424;55.154;14.722;2024-01-30T08:22:19;20.52;;;11.48;;
80961;SDS011;70424;55.154;14.722;2024-01-30T08:24:44;20.83;;;11.48;;
80961;SDS011;70424;55.154;14.722;2024-01-30T08:27:10;20.67;;;12.05;;
80961;SDS011;70424;55.154;14.722;2024-01-30T08:29:35;18.42;;;10.75;;
80961;SDS011;70424;55.154;14.722;2024-01-30T08:32:01;17.02;;;10.90;;
80961;SDS011;70424;55.154;14.722;2024-01-30T08:34:27;18.67;;;10.98;;
80961;SDS011;70424;55.154;14.722;2024-01-30T08:36:53;18.33;;;10.65;;
80961;SDS011;70424;55.154;14.722;2024-01-30T08:39:18;16.48;;;10.95;;
80961;SDS011;70424;55.154;14.722;2024-01-30T08:41:44;20.77;;;12.05;;
80961;SDS011;70424;55.154;14.722;2024-01-30T08:44:09;16.92;;;10.85;;
80961;SDS011;70424;55.154;14.722;2024-01-30T08:46:36;18.08;;;10.43;;
80961;SDS011;70424;55.154;14.722;2024-01-30T08:49:01;20.42;;;10.55;;
80961;SDS011;70424;55.154;14.722;2024-01-30T08:51:27;16.25;;;9.57;;
80961;SDS011;70424;55.154;14.722;2024-01-30T08:53:53;16.55;;;10.20;;
80961;SDS011;70424;55.154;14.722;2024-01-30T08:56:19;18.90;;;9.85;;
80961;SDS011;70424;55.154;14.722;2024-01-30T08:58:44;17.02;;;9.40;;
80961;SDS011;70424;55.154;14.722;2024-01-30T09:01:09;16.63;;;9.75;;
80961;SDS011;70424;55.154;14.722;2024-01-30T09:03:35;15.52;;;9.00;;
80961;SDS011;70424;55.154;14.722;2024-01-30T09:06:01;15.85;;;8.95;;
80961;SDS011;70424;55.154;14.722;2024-01-30T09:08:28;14.82;;;8.75;;
80961;SDS011;70424;55.154;14.722;2024-01-30T09:10:53;16.17;;;9.32;;
80961;SDS011;70424;55.154;14.722;2024-01-30T09:13:19;15.80;;;9.05;;
80961;SDS011;70424;55.154;14.722;2024-01-30T09:15:44;17.73;;;10.73;;
80961;SDS011;70424;55.154;14.722;2024-01-30T09:18:09;14.85;;;8.68;;
80961;SDS011;70424;55.154;14.722;2024-01-30T09:20:35;15.75;;;10.02;;
80961;SDS011;70424;55.154;14.722;2024-01-30T09:23:00;15.23;;;9.15;;
80961;SDS011;70424;55.154;14.722;2024-01-30T09:25:26;12.55;;;7.70;;
80961;SDS011;70424;55.154;14.722;2024-01-30T09:27:51;12.07;;;7.55;;
80961;SDS011;70424;55.154;14.722;2024-01-30T09:30:16;12.63;;;8.18;;
80961;SDS011;70424;55.154;14.722;2024-01-30T09:32:42;11.68;;;7.57;;
80961;SDS011;70424;55.154;14.722;2024-01-30T09:35:08;12.18;;;6.97;;
80961;SDS011;70424;55.154;14.722;2024-01-30T09:37:34;11.50;;;7.05;;
80961;SDS011;70424;55.154;14.722;2024-01-30T09:39:59;11.40;;;7.05;;
80961;SDS011;70424;55.154;14.722;2024-01-30T09:44:58;12.70;;;7.57;;
80961;SDS011;70424;55.154;14.722;2024-01-30T09:47:24;13.75;;;7.43;;
80961;SDS011;70424;55.154;14.722;2024-01-30T09:49:49;12.40;;;7.55;;
80961;SDS011;70424;55.154;14.722;2024-01-30T09:52:16;12.85;;;7.75;;
80961;SDS011;70424;55.154;14.722;2024-01-30T09:54:41;14.55;;;8.30;;
80961;SDS011;70424;55.154;14.722;2024-01-30T09:57:08;12.73;;;7.57;;
80961;SDS011;70424;55.154;14.722;2024-01-30T09:59:34;11.75;;;7.32;;
80961;SDS011;70424;55.154;14.722;2024-01-30T10:02:00;13.25;;;7.70;;
80961;SDS011;70424;55.154;14.722;2024-01-30T10:04:25;12.57;;;7.18;;
80961;SDS011;70424;55.154;14.722;2024-01-30T10:06:51;11.15;;;7.18;;
80961;SDS011;70424;55.154;14.722;2024-01-30T10:09:16;11.70;;;7.13;;
80961;SDS011;70424;55.154;14.722;2024-01-30T10:11:42;13.55;;;7.10;;
80961;SDS011;70424;55.154;14.722;2024-01-30T10:14:07;10.65;;;6.63;;
80961;SDS011;70424;55.154;14.722;2024-01-30T10:16:34;9.00;;;6.22;;
80961;SDS011;70424;55.154;14.722;2024-01-30T10:18:59;10.65;;;6.22;;
80961;SDS011;70424;55.154;14.722;2024-01-30T10:21:25;11.05;;;6.60;;
80961;SDS011;70424;55.154;14.722;2024-01-30T10:23:50;10.85;;;6.43;;
80961;SDS011;70424;55.154;14.722;2024-01-30T10:26:16;10.57;;;6.75;;
80961;SDS011;70424;55.154;14.722;2024-01-30T10:28:42;10.02;;;6.05;;
80961;SDS011;70424;55.154;14.722;2024-01-30T10:31:08;10.98;;;6.50;;
80961;SDS011;70424;55.154;14.722;2024-01-30T10:33:33;9.93;;;6.85;;
80961;SDS011;70424;55.154;14.722;2024-01-30T10:36:03;9.75;;;6.43;;
80961;SDS011;70424;55.154;14.722;2024-01-30T10:38:29;10.93;;;6.60;;
80961;SDS011;70424;55.154;14.722;2024-01-30T10:41:01;10.43;;;6.93;;
80961;SDS011;70424;55.154;14.722;2024-01-30T10:43:31;10.85;;;6.18;;
80961;SDS011;70424;55.154;14.722;2024-01-30T10:46:21;10.35;;;6.45;;
80961;SDS011;70424;55.154;14.722;2024-01-30T10:48:55;10.50;;;6.95;;
80961;SDS011;70424;55.154;14.722;2024-01-30T10:51:28;10.45;;;6.95;;
80961;SDS011;70424;55.154;14.722;2024-01-30T10:53:54;10.98;;;6.78;;
80961;SDS011;70424;55.154;14.722;2024-01-30T10:56:21;10.70;;;6.88;;
80961;SDS011;70424;55.154;14.722;2024-01-30T10:58:50;10.68;;;6.72;;
80961;SDS011;70424;55.154;14.722;2024-01-30T11:01:21;10.43;;;6.43;;
80961;SDS011;70424;55.154;14.722;2024-01-30T11:03:51;12.20;;;8.13;;
80961;SDS011;70424;55.154;14.722;2024-01-30T11:06:17;12.65;;;7.88;;
80961;SDS011;70424;55.154;14.722;2024-01-30T11:08:45;11.48;;;7.22;;
80961;SDS011;70424;55.154;14.722;2024-01-30T11:11:11;11.43;;;7.40;;
80961;SDS011;70424;55.154;14.722;2024-01-30T11:13:36;10.73;;;7.45;;
80961;SDS011;70424;55.154;14.722;2024-01-30T11:16:02;9.27;;;6.25;;
80961;SDS011;70424;55.154;14.722;2024-01-30T11:18:31;12.77;;;7.30;;
80961;SDS011;70424;55.154;14.722;2024-01-30T11:21:00;10.18;;;6.90;;
80961;SDS011;70424;55.154;14.722;2024-01-30T11:23:27;13.70;;;7.93;;
80961;SDS011;70424;55.154;14.722;2024-01-30T11:25:53;10.40;;;6.90;;
80961;SDS011;70424;55.154;14.722;2024-01-30T11:28:20;9.40;;;6.50;;
80961;SDS011;70424;55.154;14.722;2024-01-30T11:30:47;12.07;;;7.65;;
80961;SDS011;70424;55.154;14.722;2024-01-30T11:33:15;11.63;;;7.65;;
80961;SDS011;70424;55.154;14.722;2024-01-30T11:35:52;11.57;;;7.60;;
80961;SDS011;70424;55.154;14.722;2024-01-30T11:38:17;10.40;;;7.03;;
80961;SDS011;70424;55.154;14.722;2024-01-30T11:40:43;12.15;;;7.63;;
80961;SDS011;70424;55.154;14.722;2024-01-30T11:43:08;11.43;;;7.13;;
80961;SDS011;70424;55.154;14.722;2024-01-30T11:45:35;12.13;;;7.88;;
80961;SDS011;70424;55.154;14.722;2024-01-30T11:48:01;10.63;;;7.45;;
80961;SDS011;70424;55.154;14.722;2024-01-30T11:50:30;13.85;;;7.85;;
80961;SDS011;70424;55.154;14.722;2024-01-30T11:52:56;13.05;;;7.95;;
80961;SDS011;70424;55.154;14.722;2024-01-30T11:55:23;14.85;;;8.75;;
80961;SDS011;70424;55.154;14.722;2024-01-30T11:57:48;10.23;;;7.68;;
80961;SDS011;70424;55.154;14.722;2024-01-30T12:00:14;14.27;;;9.32;;
80961;SDS011;70424;55.154;14.722;2024-01-30T12:02:43;15.05;;;8.43;;
80961;SDS011;70424;55.154;14.722;2024-01-30T12:05:13;12.18;;;7.97;;
80961;SDS011;70424;55.154;14.722;2024-01-30T12:07:39;13.57;;;8.25;;
80961;SDS011;70424;55.154;14.722;2024-01-30T12:10:04;12.68;;;8.15;;
80961;SDS011;70424;55.154;14.722;2024-01-30T12:12:30;14.93;;;9.05;;
80961;SDS011;70424;55.154;14.722;2024-01-30T12:14:56;15.27;;;8.68;;
80961;SDS011;70424;55.154;14.722;2024-01-30T12:17:27;11.20;;;7.47;;
80961;SDS011;70424;55.154;14.722;2024-01-30T12:22:36;11.73;;;8.13;;
80961;SDS011;70424;55.154;14.722;2024-01-30T12:25:05;13.13;;;7.88;;
80961;SDS011;70424;55.154;14.722;2024-01-30T12:27:42;11.48;;;7.85;;
80961;SDS011;70424;55.154;14.722;2024-01-30T12:30:08;12.32;;;8.57;;
80961;SDS011;70424;55.154;14.722;2024-01-30T12:32:35;13.65;;;8.32;;
80961;SDS011;70424;55.154;14.722;2024-01-30T12:35:01;14.27;;;8.60;;
80961;SDS011;70424;55.154;14.722;2024-01-30T12:37:27;13.15;;;8.77;;
80961;SDS011;70424;55.154;14.722;2024-01-30T12:39:52;12.77;;;8.32;;
80961;SDS011;70424;55.154;14.722;2024-01-30T12:42:20;14.27;;;8.55;;
80961;SDS011;70424;55.154;14.722;2024-01-30T12:44:49;12.43;;;8.13;;
80961;SDS011;70424;55.154;14.722;2024-01-30T12:47:15;13.18;;;8.80;;
80961;SDS011;70424;55.154;14.722;2024-01-30T12:49:43;12.15;;;8.23;;
80961;SDS011;70424;55.154;14.722;2024-01-30T12:52:09;15.07;;;8.80;;
80961;SDS011;70424;55.154;14.722;2024-01-30T12:54:36;12.35;;;7.63;;
80961;SDS011;70424;55.154;14.722;2024-01-30T12:57:02;12.75;;;8.43;;
80961;SDS011;70424;55.154;14.722;2024-01-30T12:59:27;13.20;;;7.72;;
80961;SDS011;70424;55.154;14.722;2024-01-30T13:01:53;12.68;;;8.57;;
80961;SDS011;70424;55.154;14.722;2024-01-30T13:04:18;12.13;;;7.93;;
80961;SDS011;70424;55.154;14.722;2024-01-30T13:06:44;13.15;;;8.75;;
80961;SDS011;70424;55.154;14.722;2024-01-30T13:09:09;14.75;;;8.23;;
80961;SDS011;70424;55.154;14.722;2024-01-30T13:11:35;13.68;;;8.25;;
80961;SDS011;70424;55.154;14.722;2024-01-30T13:14:00;13.38;;;8.82;;
80961;SDS011;70424;55.154;14.722;2024-01-30T13:16:26;14.02;;;8.77;;
80961;SDS011;70424;55.154;14.722;2024-01-30T13:18:51;14.98;;;8.70;;
80961;SDS011;70424;55.154;14.722;2024-01-30T13:21:17;14.52;;;8.50;;
80961;SDS011;70424;55.154;14.722;2024-01-30T13:23:42;12.00;;;8.63;;
80961;SDS011;70424;55.154;14.722;2024-01-30T13:26:08;16.60;;;9.15;;
80961;SDS011;70424;55.154;14.722;2024-01-30T13:28:34;14.98;;;8.80;;
80961;SDS011;70424;55.154;14.722;2024-01-30T13:30:59;13.55;;;9.20;;
80961;SDS011;70424;55.154;14.722;2024-01-30T13:33:26;14.27;;;9.10;;
80961;SDS011;70424;55.154;14.722;2024-01-30T13:35:51;13.68;;;9.10;;
80961;SDS011;70424;55.154;14.722;2024-01-30T13:38:16;13.65;;;8.95;;
80961;SDS011;70424;55.154;14.722;2024-01-30T13:40:42;15.35;;;9.13;;
80961;SDS011;70424;55.154;14.722;2024-01-30T13:43:07;15.23;;;9.65;;
80961;SDS011;70424;55.154;14.722;2024-01-30T13:45:33;15.80;;;10.10;;
80961;SDS011;70424;55.154;14.722;2024-01-30T13:47:58;15.80;;;9.63;;
80961;SDS011;70424;55.154;14.722;2024-01-30T13:50:24;14.07;;;9.45;;
80961;SDS011;70424;55.154;14.722;2024-01-30T13:52:49;14.20;;;9.20;;
80961;SDS011;70424;55.154;14.722;2024-01-30T13:55:15;16.60;;;9.63;;
80961;SDS011;70424;55.154;14.722;2024-01-30T13:57:40;19.45;;;10.40;;
80961;SDS011;70424;55.154;14.722;2024-01-30T14:00:06;15.00;;;9.98;;
80961;SDS011;70424;55.154;14.722;2024-01-30T14:02:32;14.88;;;9.13;;
80961;SDS011;70424;55.154;14.722;2024-01-30T14:04:58;14.88;;;9.23;;
80961;SDS011;70424;55.154;14.722;2024-01-30T14:07:23;13.40;;;9.15;;
80961;SDS011;70424;55.154;14.722;2024-01-30T14:09:49;15.20;;;9.50;;
80961;SDS011;70424;55.154;14.722;2024-01-30T14:12:14;16.13;;;10.15;;
80961;SDS011;70424;55.154;14.722;2024-01-30T14:14:40;15.07;;;9.70;;
80961;SDS011;70424;55.154;14.722;2024-01-30T14:17:06;17.63;;;9.95;;
80961;SDS011;70424;55.154;14.722;2024-01-30T14:19:32;14.45;;;8.63;;